Time;durP1;ratioP1;P1;durP2;ratioP2;P2;SDS_P1;SDS_P2;PMS_P1;PMS_P2;Temp;Humidity;BMP_temperature;BMP_pressure;BME280_temperature;BME280_humidity;BME280_pressure;Samples;Min_cycle;Max_cycle;Signal;HPM_P1;HPM_P2
2023/05/15 00:51:38;;;;;;;5.80;3.83;;;;;;;;;;673288;23;20747;-91
2023/05/15 00:54:04;;;;;;;4.37;3.43;;;;;;;;;;4965078;28;20466;-91
2023/05/15 00:56:30;;;;;;;5.60;3.93;;;;;;;;;;4950048;28;20437;-91
2023/05/15 00:58:58;;;;;;;3.93;3.30;;;;;;;;;;4946296;28;20579;-90
2023/05/15 01:01:24;;;;;;;4.60;3.77;;;;;;;;;;4947054;28;20490;-91
2023/05/15 01:03:50;;;;;;;4.60;3.50;;;;;;;;;;4948665;28;20526;-91
2023/05/15 01:06:16;;;;;;;4.90;3.50;;;;;;;;;;4952421;28;20576;-91
2023/05/15 01:08:43;;;;;;;4.33;3.93;;;;;;;;;;4944011;28;20533;-91
2023/05/15 01:11:09;;;;;;;5.13;4.10;;;;;;;;;;4949020;28;21114;-91
2023/05/15 01:13:38;;;;;;;4.33;3.40;;;;;;;;;;4953443;28;20426;-91
2023/05/15 01:16:05;;;;;;;3.83;3.50;;;;;;;;;;4944314;28;20510;-91
2023/05/15 01:18:31;;;;;;;6.47;3.87;;;;;;;;;;4975521;28;20492;-91
2023/05/15 01:21:09;;;;;;;4.03;3.63;;;;;;;;;;4954095;28;20469;-90
2023/05/15 01:23:38;;;;;;;6.33;3.63;;;;;;;;;;4976114;28;21012;-91
2023/05/15 01:26:13;;;;;;;5.20;3.70;;;;;;;;;;4974535;28;20457;-90
2023/05/15 01:28:40;;;;;;;4.17;3.60;;;;;;;;;;4976583;28;20420;-91
2023/05/15 01:31:08;;;;;;;4.67;3.80;;;;;;;;;;4949925;28;20430;-90
2023/05/15 01:33:35;;;;;;;5.07;4.00;;;;;;;;;;4979451;28;20940;-90
2023/05/15 01:36:04;;;;;;;4.30;3.43;;;;;;;;;;4961107;28;20453;-92
2023/05/15 01:38:37;;;;;;;5.20;4.70;;;;;;;;;;4953980;28;20521;-91
2023/05/15 01:41:10;;;;;;;4.00;3.60;;;;;;;;;;4981447;28;20472;-91
2023/05/15 01:43:37;;;;;;;4.23;3.17;;;;;;;;;;4945332;28;21023;-90
2023/05/15 01:46:03;;;;;;;6.10;4.60;;;;;;;;;;4975462;28;20437;-90
2023/05/15 01:48:29;;;;;;;4.57;4.07;;;;;;;;;;4984166;28;20457;-92
2023/05/15 01:50:55;;;;;;;8.53;4.67;;;;;;;;;;4949517;28;20442;-91
2023/05/15 01:53:21;;;;;;;5.17;3.73;;;;;;;;;;4968615;28;20460;-91
2023/05/15 01:55:48;;;;;;;4.43;3.67;;;;;;;;;;4960511;28;20433;-91
2023/05/15 01:58:14;;;;;;;5.20;3.70;;;;;;;;;;4959732;28;20525;-91
2023/05/15 02:00:40;;;;;;;4.87;3.47;;;;;;;;;;4944882;28;20470;-91
2023/05/15 02:03:06;;;;;;;3.87;3.30;;;;;;;;;;4950406;28;20433;-91
2023/05/15 02:05:32;;;;;;;4.70;3.83;;;;;;;;;;4960257;28;20497;-91
2023/05/15 02:07:58;;;;;;;4.27;3.60;;;;;;;;;;4958711;28;20887;-91
2023/05/15 02:10:24;;;;;;;4.80;4.20;;;;;;;;;;4976234;28;20438;-91
2023/05/15 02:12:50;;;;;;;4.07;3.70;;;;;;;;;;4980133;28;20420;-91
2023/05/15 02:15:17;;;;;;;4.10;3.57;;;;;;;;;;4952744;28;20437;-90
2023/05/15 02:17:43;;;;;;;6.50;4.13;;;;;;;;;;4949006;28;20979;-91
2023/05/15 02:20:09;;;;;;;4.63;3.73;;;;;;;;;;4973425;28;20461;-91
2023/05/15 02:22:35;;;;;;;5.93;4.33;;;;;;;;;;4951159;28;20489;-92
2023/05/15 02:25:01;;;;;;;4.53;3.63;;;;;;;;;;4975908;28;20430;-91
2023/05/15 02:27:27;;;;;;;4.83;4.10;;;;;;;;;;4947355;28;21000;-91
2023/05/15 02:30:00;;;;;;;7.10;3.90;;;;;;;;;;4944326;28;20756;-91
2023/05/15 02:32:30;;;;;;;5.00;3.87;;;;;;;;;;4978287;28;20437;-92
2023/05/15 02:35:03;;;;;;;4.03;3.20;;;;;;;;;;4957619;28;20422;-92
2023/05/15 02:37:30;;;;;;;3.87;3.47;;;;;;;;;;4979640;28;20465;-90
2023/05/15 02:39:58;;;;;;;4.33;3.93;;;;;;;;;;4948958;28;20462;-91
2023/05/15 02:42:24;;;;;;;4.93;4.30;;;;;;;;;;4947013;28;20460;-91
2023/05/15 02:44:50;;;;;;;4.80;3.70;;;;;;;;;;4946023;28;21170;-91
2023/05/15 02:47:16;;;;;;;4.20;3.80;;;;;;;;;;4946858;28;20430;-91
2023/05/15 02:49:42;;;;;;;4.60;3.97;;;;;;;;;;4954003;28;20805;-91
2023/05/15 02:52:08;;;;;;;8.97;4.50;;;;;;;;;;4943474;28;20450;-91
2023/05/15 02:54:34;;;;;;;6.07;4.10;;;;;;;;;;4960352;28;20434;-91
2023/05/15 02:57:00;;;;;;;5.53;4.20;;;;;;;;;;4959547;28;20481;-91
2023/05/15 02:59:26;;;;;;;5.77;4.47;;;;;;;;;;4949272;28;20469;-91
2023/05/15 03:01:52;;;;;;;4.53;3.40;;;;;;;;;;4939211;28;20430;-91
2023/05/15 03:04:18;;;;;;;7.17;4.30;;;;;;;;;;4970113;28;20831;-92
2023/05/15 03:06:44;;;;;;;4.40;3.50;;;;;;;;;;4977233;28;20476;-91
2023/05/15 03:09:10;;;;;;;5.90;3.97;;;;;;;;;;4980101;28;20442;-91
2023/05/15 03:11:36;;;;;;;4.40;3.70;;;;;;;;;;4950617;28;20422;-91
2023/05/15 03:14:02;;;;;;;5.83;3.80;;;;;;;;;;4982089;28;20457;-91
2023/05/15 03:16:28;;;;;;;4.47;4.07;;;;;;;;;;4961659;28;20453;-91
2023/05/15 03:18:54;;;;;;;5.67;3.90;;;;;;;;;;4962817;28;20469;-91
2023/05/15 03:21:20;;;;;;;5.50;3.93;;;;;;;;;;4949712;28;20464;-91
2023/05/15 03:23:46;;;;;;;4.70;3.57;;;;;;;;;;4946323;28;20446;-92
2023/05/15 03:26:12;;;;;;;5.47;4.03;;;;;;;;;;4944580;28;20949;-91
2023/05/15 03:28:38;;;;;;;5.20;4.00;;;;;;;;;;4956218;28;20545;-91
2023/05/15 03:31:04;;;;;;;3.87;3.23;;;;;;;;;;4978763;28;20442;-91
2023/05/15 03:33:30;;;;;;;4.17;3.63;;;;;;;;;;4947039;28;20452;-91
2023/05/15 03:35:56;;;;;;;5.03;4.53;;;;;;;;;;4965174;28;20438;-91
2023/05/15 03:38:22;;;;;;;5.63;3.57;;;;;;;;;;4979712;28;20440;-91
2023/05/15 03:40:48;;;;;;;4.00;3.30;;;;;;;;;;4948717;28;21129;-91
2023/05/15 03:43:14;;;;;;;6.40;4.20;;;;;;;;;;4987456;28;20437;-91
2023/05/15 03:45:40;;;;;;;4.03;3.67;;;;;;;;;;4954266;28;20444;-91
2023/05/15 03:48:06;;;;;;;4.80;3.67;;;;;;;;;;4963897;28;20876;-90
2023/05/15 03:50:33;;;;;;;4.80;3.87;;;;;;;;;;4950436;28;20437;-91
2023/05/15 03:52:59;;;;;;;4.33;3.67;;;;;;;;;;4950437;28;20453;-91
2023/05/15 03:55:25;;;;;;;5.30;4.80;;;;;;;;;;4952248;28;20457;-91
2023/05/15 03:57:51;;;;;;;5.40;3.73;;;;;;;;;;4963574;28;20503;-91
2023/05/15 04:00:17;;;;;;;4.93;4.17;;;;;;;;;;4957128;28;20469;-91
2023/05/15 04:02:43;;;;;;;4.10;3.80;;;;;;;;;;4948637;28;20497;-90
2023/05/15 04:05:09;;;;;;;4.60;4.10;;;;;;;;;;4984645;28;20422;-91
2023/05/15 04:07:35;;;;;;;4.57;4.00;;;;;;;;;;4950192;28;20447;-91
2023/05/15 04:10:01;;;;;;;5.50;5.00;;;;;;;;;;4947239;28;20441;-90
2023/05/15 04:12:28;;;;;;;4.97;4.47;;;;;;;;;;4943736;28;20451;-91
2023/05/15 04:14:55;;;;;;;5.33;4.17;;;;;;;;;;4957869;28;20953;-91
2023/05/15 04:17:21;;;;;;;4.50;3.83;;;;;;;;;;4966875;28;20973;-90
2023/05/15 04:19:47;;;;;;;5.73;3.70;;;;;;;;;;4950798;28;20461;-91
2023/05/15 04:22:14;;;;;;;5.83;4.70;;;;;;;;;;4949070;28;20450;-92
2023/05/15 04:24:40;;;;;;;5.90;4.50;;;;;;;;;;4963803;28;20421;-91
2023/05/15 04:27:06;;;;;;;4.33;3.93;;;;;;;;;;4941616;28;20808;-90
2023/05/15 04:29:32;;;;;;;5.00;4.60;;;;;;;;;;4946683;28;20434;-91
2023/05/15 04:31:58;;;;;;;3.90;3.43;;;;;;;;;;4978120;28;20981;-90
2023/05/15 04:34:25;;;;;;;8.13;3.90;;;;;;;;;;4962333;28;20433;-90
2023/05/15 04:36:51;;;;;;;5.67;4.53;;;;;;;;;;4955447;28;20444;-91
2023/05/15 04:39:17;;;;;;;4.70;4.00;;;;;;;;;;4960817;28;20495;-92
2023/05/15 04:41:44;;;;;;;5.03;4.53;;;;;;;;;;4985947;28;20433;-93
2023/05/15 04:44:10;;;;;;;8.23;4.40;;;;;;;;;;4942504;28;20465;-93
2023/05/15 04:46:36;;;;;;;7.37;4.67;;;;;;;;;;4949346;28;20450;-90
2023/05/15 04:49:04;;;;;;;5.13;4.13;;;;;;;;;;4949749;28;20793;-91
2023/05/15 04:51:30;;;;;;;5.43;3.93;;;;;;;;;;4943010;28;20438;-90
2023/05/15 04:53:56;;;;;;;5.10;4.03;;;;;;;;;;4943389;28;21061;-90
2023/05/15 04:56:22;;;;;;;5.23;4.20;;;;;;;;;;4947395;28;20461;-93
2023/05/15 04:58:53;;;;;;;6.40;5.10;;;;;;;;;;4980473;28;20525;-95
2023/05/15 05:01:22;;;;;;;6.00;4.40;;;;;;;;;;4985188;28;20553;-94
2023/05/15 05:03:51;;;;;;;6.50;4.90;;;;;;;;;;4981038;28;20529;-90
2023/05/15 05:06:17;;;;;;;5.97;4.73;;;;;;;;;;4979236;28;21137;-91
2023/05/15 05:08:43;;;;;;;6.70;4.97;;;;;;;;;;4946583;28;20438;-90
2023/05/15 05:11:09;;;;;;;5.80;4.87;;;;;;;;;;4971969;28;20484;-91
2023/05/15 05:13:35;;;;;;;7.13;5.30;;;;;;;;;;4965013;28;22170;-90
2023/05/15 05:16:02;;;;;;;4.63;3.93;;;;;;;;;;4950732;28;20429;-90
2023/05/15 05:18:29;;;;;;;6.20;5.00;;;;;;;;;;4976920;28;20485;-91
2023/05/15 05:21:00;;;;;;;5.77;4.53;;;;;;;;;;4980690;28;20469;-90
2023/05/15 05:23:26;;;;;;;6.03;4.87;;;;;;;;;;4949548;28;20449;-91
2023/05/15 05:25:52;;;;;;;6.80;5.20;;;;;;;;;;4947068;28;20431;-91
2023/05/15 05:28:20;;;;;;;7.77;4.97;;;;;;;;;;4978398;28;20545;-92
2023/05/15 05:30:52;;;;;;;6.73;5.97;;;;;;;;;;4986116;28;20448;-91
2023/05/15 05:33:23;;;;;;;6.20;5.50;;;;;;;;;;4966855;28;20448;-91
2023/05/15 05:35:54;;;;;;;11.33;5.90;;;;;;;;;;4947496;28;20470;-91
2023/05/15 05:38:20;;;;;;;6.70;5.67;;;;;;;;;;4982599;28;20470;-90
2023/05/15 05:41:04;;;;;;;5.93;5.33;;;;;;;;;;4983820;28;20466;-91
2023/05/15 05:43:33;;;;;;;6.97;6.27;;;;;;;;;;4984153;28;20434;-92
2023/05/15 05:46:03;;;;;;;7.90;5.37;;;;;;;;;;4963130;28;20430;-91
2023/05/15 05:48:29;;;;;;;10.30;7.30;;;;;;;;;;4981958;28;20437;-93
2023/05/15 05:51:03;;;;;;;9.13;6.60;;;;;;;;;;4950344;28;20426;-92
2023/05/15 05:53:29;;;;;;;7.27;6.50;;;;;;;;;;4953261;28;20792;-92
2023/05/15 05:56:01;;;;;;;8.93;5.50;;;;;;;;;;4983565;28;20438;-93
2023/05/15 05:58:28;;;;;;;8.13;6.30;;;;;;;;;;4965879;28;20500;-92
2023/05/15 06:01:09;;;;;;;10.47;6.70;;;;;;;;;;4984649;28;20579;-92
2023/05/15 06:03:38;;;;;;;8.70;7.60;;;;;;;;;;4982785;28;20430;-91
2023/05/15 06:06:04;;;;;;;8.53;7.03;;;;;;;;;;4967437;28;20432;-92
2023/05/15 06:08:30;;;;;;;9.53;6.60;;;;;;;;;;4977150;28;20434;-92
2023/05/15 06:10:56;;;;;;;10.33;5.70;;;;;;;;;;4959171;28;20516;-92
2023/05/15 06:13:22;;;;;;;9.67;6.17;;;;;;;;;;4975057;28;20442;-92
2023/05/15 06:15:50;;;;;;;6.50;5.30;;;;;;;;;;4944374;28;20456;-93
2023/05/15 06:18:16;;;;;;;7.93;6.00;;;;;;;;;;4960106;28;20450;-92
2023/05/15 06:20:42;;;;;;;8.23;5.70;;;;;;;;;;4939957;29;20543;-93
2023/05/15 06:23:09;;;;;;;7.53;6.10;;;;;;;;;;4966379;28;20446;-92
2023/05/15 06:25:38;;;;;;;10.17;5.80;;;;;;;;;;4976477;28;20415;-91
2023/05/15 06:28:05;;;;;;;7.77;5.70;;;;;;;;;;4983105;28;20468;-92
2023/05/15 06:30:31;;;;;;;8.33;5.37;;;;;;;;;;4969751;28;20438;-91
2023/05/15 06:32:57;;;;;;;8.60;6.47;;;;;;;;;;4944601;28;20434;-92
2023/05/15 06:35:23;;;;;;;7.50;6.47;;;;;;;;;;4962062;28;20454;-92
2023/05/15 06:37:52;;;;;;;6.77;6.07;;;;;;;;;;4944425;28;20468;-91
2023/05/15 06:40:18;;;;;;;6.27;5.60;;;;;;;;;;4985237;28;20461;-92
2023/05/15 06:42:44;;;;;;;6.37;5.27;;;;;;;;;;4941573;29;20505;-92
2023/05/15 06:45:10;;;;;;;7.93;5.63;;;;;;;;;;4948353;28;20921;-92
2023/05/15 06:47:36;;;;;;;6.30;5.50;;;;;;;;;;4963716;28;20465;-91
2023/05/15 06:50:02;;;;;;;7.10;6.20;;;;;;;;;;4980656;28;20434;-92
2023/05/15 06:52:28;;;;;;;5.30;4.73;;;;;;;;;;4944777;28;20841;-92
2023/05/15 06:54:59;;;;;;;5.50;4.87;;;;;;;;;;4986327;28;20422;-93
2023/05/15 06:57:25;;;;;;;6.57;5.80;;;;;;;;;;4976586;28;20431;-92
2023/05/15 06:59:51;;;;;;;6.13;5.30;;;;;;;;;;4962044;28;20446;-93
2023/05/15 07:02:17;;;;;;;6.70;4.60;;;;;;;;;;4984564;28;20513;-92
2023/05/15 07:04:43;;;;;;;6.53;5.13;;;;;;;;;;4977906;28;20446;-91
2023/05/15 07:07:09;;;;;;;4.90;4.40;;;;;;;;;;4978777;28;20480;-92
2023/05/15 07:09:35;;;;;;;7.63;4.87;;;;;;;;;;4982983;28;20451;-92
2023/05/15 07:12:02;;;;;;;5.83;4.60;;;;;;;;;;4964201;28;20453;-92
2023/05/15 10:29:20;;;;;;;5.87;4.40;;;;;;;;;;4938782;29;20523;-92
2023/05/15 10:31:50;;;;;;;6.13;3.63;;;;;;;;;;4972583;28;20530;-91
2023/05/15 10:34:16;;;;;;;4.73;3.40;;;;;;;;;;4959985;28;20497;-93
2023/05/15 10:36:43;;;;;;;5.20;3.57;;;;;;;;;;4961859;28;20456;-94
2023/05/15 10:39:09;;;;;;;6.23;3.77;;;;;;;;;;4976406;28;20412;-93
2023/05/15 10:41:38;;;;;;;5.90;4.80;;;;;;;;;;4973065;28;20527;-92
2023/05/15 10:44:04;;;;;;;4.23;3.53;;;;;;;;;;4980032;28;20439;-93
2023/05/15 10:46:34;;;;;;;5.77;3.30;;;;;;;;;;4933941;29;20474;-93
2023/05/15 10:49:00;;;;;;;3.93;3.53;;;;;;;;;;4957802;29;20450;-95
2023/05/15 10:51:30;;;;;;;3.33;3.03;;;;;;;;;;4962936;29;20482;-93
2023/05/15 10:54:05;;;;;;;4.53;3.17;;;;;;;;;;4945671;29;20434;-93
2023/05/15 10:56:34;;;;;;;4.00;3.60;;;;;;;;;;4941612;29;20441;-91
2023/05/15 10:59:08;;;;;;;3.60;3.20;;;;;;;;;;4946475;28;20488;-91
2023/05/15 11:01:35;;;;;;;4.10;2.57;;;;;;;;;;4942473;29;20494;-92
2023/05/15 11:04:05;;;;;;;2.87;2.57;;;;;;;;;;4940277;29;20423;-92
2023/05/15 11:06:31;;;;;;;2.97;2.60;;;;;;;;;;4962276;29;20423;-91
2023/05/15 11:09:16;;;;;;;3.27;2.90;;;;;;;;;;4939284;29;20439;-89
2023/05/15 11:11:51;;;;;;;3.40;3.10;;;;;;;;;;4957049;28;20478;-91
2023/05/15 11:14:18;;;;;;;4.40;2.87;;;;;;;;;;4959023;28;20490;-92
2023/05/15 11:16:56;;;;;;;3.90;3.50;;;;;;;;;;4959205;29;20407;-90
2023/05/15 11:19:23;;;;;;;4.90;3.70;;;;;;;;;;4935863;29;20443;-91
2023/05/15 11:22:07;;;;;;;3.77;3.10;;;;;;;;;;4967735;28;20528;-92
2023/05/15 11:24:52;;;;;;;3.40;3.10;;;;;;;;;;4958621;28;20458;-90
2023/05/15 11:27:22;;;;;;;4.77;3.03;;;;;;;;;;4963530;28;20439;-92
2023/05/15 11:30:07;;;;;;;4.20;2.80;;;;;;;;;;4975495;28;20436;-91
2023/05/15 11:32:40;;;;;;;3.67;3.37;;;;;;;;;;4965408;28;20430;-92
2023/05/15 11:35:17;;;;;;;4.07;2.80;;;;;;;;;;4966580;28;20435;-91
2023/05/15 11:37:44;;;;;;;4.87;3.07;;;;;;;;;;4936511;29;20430;-90
2023/05/15 11:40:14;;;;;;;5.83;3.30;;;;;;;;;;4954264;28;20487;-93
2023/05/15 11:42:40;;;;;;;3.40;3.10;;;;;;;;;;4962166;28;20439;-91
2023/05/15 11:45:08;;;;;;;3.47;3.13;;;;;;;;;;4968949;28;20463;-91
2023/05/15 11:47:34;;;;;;;5.20;2.70;;;;;;;;;;4975199;28;21028;-92
2023/05/15 11:50:00;;;;;;;3.20;2.80;;;;;;;;;;4975570;28;20435;-94
2023/05/15 11:52:26;;;;;;;4.50;3.50;;;;;;;;;;4947133;29;20432;-91
2023/05/15 11:54:53;;;;;;;3.73;3.43;;;;;;;;;;4956282;28;20451;-90
2023/05/15 11:57:20;;;;;;;3.60;3.30;;;;;;;;;;4963612;28;20431;-92
2023/05/15 11:59:46;;;;;;;4.27;3.57;;;;;;;;;;4981083;28;20478;-91
2023/05/15 12:02:12;;;;;;;4.00;3.67;;;;;;;;;;4942750;28;20459;-92
2023/05/15 12:04:38;;;;;;;5.17;3.77;;;;;;;;;;4939490;28;20476;-91
2023/05/15 12:07:04;;;;;;;4.47;3.30;;;;;;;;;;4979717;28;20452;-90
2023/05/15 12:09:30;;;;;;;4.67;3.80;;;;;;;;;;4975155;28;20448;-91
2023/05/15 12:12:02;;;;;;;3.80;3.50;;;;;;;;;;4946555;28;20441;-92
2023/05/15 12:14:28;;;;;;;4.43;3.53;;;;;;;;;;4943424;29;20431;-91
2023/05/15 12:17:01;;;;;;;4.70;3.80;;;;;;;;;;4973772;28;20442;-91
2023/05/15 12:19:28;;;;;;;4.40;4.00;;;;;;;;;;4949626;28;20436;-91
2023/05/15 12:21:55;;;;;;;3.90;3.60;;;;;;;;;;4946953;28;20455;-91
2023/05/15 12:24:21;;;;;;;4.50;4.10;;;;;;;;;;4977194;28;20447;-94
2023/05/15 12:26:47;;;;;;;4.57;4.17;;;;;;;;;;4964543;28;20480;-92
2023/05/15 12:29:13;;;;;;;3.90;3.50;;;;;;;;;;4960766;28;20468;-93
2023/05/15 12:31:39;;;;;;;6.90;3.13;;;;;;;;;;4963676;28;20438;-93
2023/05/15 12:34:05;;;;;;;4.10;3.00;;;;;;;;;;4961267;28;20427;-94
2023/05/15 12:36:32;;;;;;;3.50;3.20;;;;;;;;;;4967034;28;20550;-91
2023/05/15 12:38:58;;;;;;;3.80;3.27;;;;;;;;;;4944196;29;20799;-90
2023/05/15 12:41:28;;;;;;;4.13;3.63;;;;;;;;;;4927779;29;20480;-91
2023/05/15 12:43:54;;;;;;;4.20;3.80;;;;;;;;;;4967346;28;20424;-90
2023/05/15 12:46:23;;;;;;;4.50;3.60;;;;;;;;;;4978107;28;20415;-92
2023/05/15 12:48:49;;;;;;;3.40;3.10;;;;;;;;;;4977728;28;20732;-92
2023/05/15 12:51:16;;;;;;;3.80;3.40;;;;;;;;;;4959110;28;20447;-92
2023/05/15 12:53:42;;;;;;;4.20;3.83;;;;;;;;;;4961926;28;20427;-93
2023/05/15 12:56:08;;;;;;;4.73;4.00;;;;;;;;;;4938739;29;20442;-92
2023/05/15 12:58:34;;;;;;;3.57;3.23;;;;;;;;;;4927590;29;20797;-89
2023/05/15 13:01:03;;;;;;;3.80;3.47;;;;;;;;;;4941763;29;20459;-90
2023/05/15 13:03:29;;;;;;;4.10;3.70;;;;;;;;;;4945203;29;21235;-92
2023/05/15 13:05:56;;;;;;;6.00;4.13;;;;;;;;;;4957608;28;20424;-90
2023/05/15 13:08:22;;;;;;;4.73;4.30;;;;;;;;;;4974425;28;20438;-93
2023/05/15 13:10:55;;;;;;;4.77;4.37;;;;;;;;;;4976287;28;20428;-94
2023/05/15 13:13:42;;;;;;;5.00;4.13;;;;;;;;;;4976698;28;20423;-92
2023/05/15 13:16:17;;;;;;;4.53;3.70;;;;;;;;;;4946244;29;20404;-92
2023/05/15 13:18:43;;;;;;;5.23;3.97;;;;;;;;;;4941999;29;20530;-92
2023/05/15 13:21:09;;;;;;;5.60;4.20;;;;;;;;;;4924069;29;20483;-93
2023/05/15 13:23:35;;;;;;;4.40;4.00;;;;;;;;;;4912419;29;21187;-93
2023/05/15 13:26:01;;;;;;;3.90;3.50;;;;;;;;;;4922756;29;20435;-93
2023/05/15 13:28:27;;;;;;;6.03;3.80;;;;;;;;;;4930505;29;20480;-92
2023/05/15 13:30:53;;;;;;;3.80;3.50;;;;;;;;;;4926662;29;20416;-90
2023/05/15 13:33:19;;;;;;;5.23;4.20;;;;;;;;;;4937639;29;20441;-90
2023/05/15 13:35:45;;;;;;;4.50;4.10;;;;;;;;;;4914641;29;20470;-92
2023/05/15 13:38:11;;;;;;;5.23;4.20;;;;;;;;;;4920939;29;20440;-91
2023/05/15 13:40:37;;;;;;;4.73;4.00;;;;;;;;;;4918803;29;20468;-92
2023/05/15 13:43:05;;;;;;;5.03;4.30;;;;;;;;;;4921551;29;20440;-92
2023/05/15 13:45:31;;;;;;;6.00;4.90;;;;;;;;;;4917562;29;20459;-91
2023/05/15 13:47:58;;;;;;;4.60;4.20;;;;;;;;;;4904863;29;21002;-91
2023/05/15 13:50:24;;;;;;;5.00;4.50;;;;;;;;;;4924158;29;20431;-92
2023/05/15 13:52:53;;;;;;;5.53;5.00;;;;;;;;;;4938613;29;20439;-92
2023/05/15 13:55:19;;;;;;;6.13;5.53;;;;;;;;;;4941535;29;20427;-92
2023/05/15 13:57:45;;;;;;;7.40;4.40;;;;;;;;;;4956299;28;20435;-91
2023/05/15 14:00:12;;;;;;;6.10;4.63;;;;;;;;;;4936737;29;20477;-91
2023/05/15 14:02:38;;;;;;;5.30;3.67;;;;;;;;;;4926146;29;20517;-91
2023/05/15 14:05:05;;;;;;;6.60;3.77;;;;;;;;;;4936156;29;20845;-92
2023/05/15 14:07:31;;;;;;;5.20;4.10;;;;;;;;;;4922692;29;20782;-91
2023/05/15 14:09:57;;;;;;;5.03;4.53;;;;;;;;;;4936310;29;20508;-91
2023/05/15 14:12:23;;;;;;;4.67;4.27;;;;;;;;;;4941032;29;20425;-91
2023/05/15 14:14:49;;;;;;;5.20;4.50;;;;;;;;;;4966184;28;20432;-90
2023/05/15 14:17:15;;;;;;;6.37;5.07;;;;;;;;;;4974360;28;20456;-91
2023/05/15 14:19:41;;;;;;;7.37;4.90;;;;;;;;;;4923316;29;20471;-91
2023/05/15 14:22:07;;;;;;;6.50;5.23;;;;;;;;;;4941051;29;20443;-91
2023/05/15 14:24:33;;;;;;;8.80;4.37;;;;;;;;;;4936097;28;20436;-91
2023/05/15 14:27:00;;;;;;;6.37;4.77;;;;;;;;;;4967352;28;20442;-91
2023/05/15 14:29:31;;;;;;;5.70;4.20;;;;;;;;;;4937481;29;20451;-91
2023/05/15 14:31:57;;;;;;;5.67;5.17;;;;;;;;;;4946325;28;21014;-88
2023/05/15 14:34:23;;;;;;;5.10;4.60;;;;;;;;;;4962881;28;20451;-90
2023/05/15 14:36:49;;;;;;;7.20;5.00;;;;;;;;;;4953601;28;20512;-92
2023/05/15 14:39:15;;;;;;;5.40;4.90;;;;;;;;;;4962098;28;20463;-92
2023/05/15 14:41:42;;;;;;;5.10;4.43;;;;;;;;;;4962882;28;20848;-90
2023/05/15 14:44:08;;;;;;;7.50;3.73;;;;;;;;;;4929624;29;20794;-92
2023/05/15 14:46:37;;;;;;;4.50;3.80;;;;;;;;;;4958410;28;20486;-92
2023/05/15 14:49:03;;;;;;;5.60;5.10;;;;;;;;;;4963025;28;20459;-90
2023/05/15 14:51:29;;;;;;;5.57;4.70;;;;;;;;;;4938470;28;20442;-90
2023/05/15 14:53:59;;;;;;;6.50;5.10;;;;;;;;;;4942170;29;20427;-90
2023/05/15 14:56:25;;;;;;;5.87;5.07;;;;;;;;;;4941921;29;20466;-89
2023/05/15 14:58:52;;;;;;;5.03;4.60;;;;;;;;;;4926487;29;20437;-90
2023/05/15 15:01:18;;;;;;;4.80;4.40;;;;;;;;;;4964608;28;20615;-90
2023/05/15 15:03:44;;;;;;;11.20;4.20;;;;;;;;;;4946692;29;20439;-92
2023/05/15 15:06:10;;;;;;;3.83;3.43;;;;;;;;;;4929208;29;20445;-92
2023/05/15 15:08:36;;;;;;;3.83;3.53;;;;;;;;;;4927729;29;20460;-92
2023/05/15 15:11:02;;;;;;;4.63;3.40;;;;;;;;;;4915529;29;20447;-92
2023/05/15 15:13:31;;;;;;;4.63;3.40;;;;;;;;;;4928574;29;20432;-92
2023/05/15 15:15:57;;;;;;;3.90;3.60;;;;;;;;;;4953042;29;20455;-92
2023/05/15 15:18:23;;;;;;;3.33;2.97;;;;;;;;;;4920922;29;20436;-91
2023/05/15 15:20:49;;;;;;;3.63;3.20;;;;;;;;;;4920736;29;20468;-91
2023/05/15 15:23:15;;;;;;;5.93;3.30;;;;;;;;;;4937312;29;20438;-91
2023/05/15 15:25:41;;;;;;;4.77;3.13;;;;;;;;;;4943358;29;20423;-91
2023/05/15 15:28:08;;;;;;;4.03;3.63;;;;;;;;;;4972819;28;20834;-92
2023/05/15 15:30:34;;;;;;;3.60;3.30;;;;;;;;;;4973102;28;20432;-92
2023/05/15 15:33:00;;;;;;;4.10;3.53;;;;;;;;;;4975030;28;20543;-92
2023/05/15 15:35:27;;;;;;;4.13;3.10;;;;;;;;;;4961075;28;20458;-91
2023/05/15 15:37:53;;;;;;;3.80;3.50;;;;;;;;;;4974043;28;20423;-92
2023/05/15 15:40:19;;;;;;;4.57;4.17;;;;;;;;;;4975256;28;21061;-93
2023/05/15 15:45:56;;;;;;;5.30;4.80;;;;;;;;;;4925763;28;20432;-93
2023/05/15 15:48:22;;;;;;;4.67;4.17;;;;;;;;;;4946995;28;20427;-92
2023/05/15 15:50:48;;;;;;;6.00;4.90;;;;;;;;;;4957895;28;20463;-93
2023/05/15 15:53:14;;;;;;;7.90;5.00;;;;;;;;;;4963590;28;20542;-93
2023/05/15 15:55:41;;;;;;;7.93;4.93;;;;;;;;;;4976694;28;20434;-94
2023/05/15 15:58:07;;;;;;;5.13;4.30;;;;;;;;;;4928657;29;20463;-92
2023/05/15 16:00:33;;;;;;;4.40;4.00;;;;;;;;;;4942929;29;20464;-92
2023/05/15 16:03:28;;;;;;;4.30;3.88;;;;;;;;;;4961652;28;20448;-93
2023/05/15 16:05:54;;;;;;;6.00;4.13;;;;;;;;;;4945071;29;20207;-92
2023/05/15 16:08:20;;;;;;;4.20;3.73;;;;;;;;;;4975122;28;20419;-92
2023/05/15 16:10:46;;;;;;;5.17;4.67;;;;;;;;;;4989382;28;20864;-91
2023/05/15 16:13:12;;;;;;;5.60;4.60;;;;;;;;;;4987355;28;20426;-89
2023/05/15 16:15:38;;;;;;;5.00;4.60;;;;;;;;;;4963201;28;20450;-91
2023/05/15 16:18:04;;;;;;;5.30;4.80;;;;;;;;;;4976595;28;20522;-91
2023/05/15 16:20:30;;;;;;;6.90;5.37;;;;;;;;;;4986604;28;20437;-92
2023/05/15 16:22:56;;;;;;;7.73;4.90;;;;;;;;;;4979834;28;20438;-90
2023/05/15 16:25:22;;;;;;;4.73;4.30;;;;;;;;;;4982478;28;20521;-90
2023/05/15 16:27:49;;;;;;;7.47;3.70;;;;;;;;;;4964699;28;21005;-91
2023/05/15 16:30:15;;;;;;;5.20;4.10;;;;;;;;;;4946002;29;20442;-90
2023/05/15 16:33:16;;;;;;;4.30;3.67;;;;;;;;;;4984435;28;20440;-95
2023/05/15 16:35:49;;;;;;;4.07;3.67;;;;;;;;;;4913145;28;20459;-96
2023/05/15 16:38:16;;;;;;;3.37;2.80;;;;;;;;;;4961064;29;20462;-94
2023/05/15 16:40:47;;;;;;;3.17;2.73;;;;;;;;;;4958282;28;20492;-96
2023/05/15 16:43:23;;;;;;;4.13;2.53;;;;;;;;;;4951240;28;20440;-96
2023/05/15 16:45:52;;;;;;;3.00;2.60;;;;;;;;;;4962126;29;20435;-96
2023/05/15 16:48:18;;;;;;;2.57;2.37;;;;;;;;;;4950660;28;20437;-90
2023/05/15 16:50:44;;;;;;;3.20;2.17;;;;;;;;;;4963419;28;20452;-90
2023/05/15 16:53:13;;;;;;;3.40;2.27;;;;;;;;;;4974174;28;20436;-90
2023/05/15 16:55:39;;;;;;;4.93;2.10;;;;;;;;;;4924124;29;20530;-90
2023/05/15 16:58:05;;;;;;;3.80;1.70;;;;;;;;;;4969506;28;20451;-89
2023/05/15 17:00:31;;;;;;;3.03;2.23;;;;;;;;;;4941113;29;21333;-89
2023/05/15 17:02:58;;;;;;;2.20;1.90;;;;;;;;;;4961973;28;20451;-91
2023/05/15 17:05:24;;;;;;;3.23;2.23;;;;;;;;;;4971907;28;20428;-90
2023/05/15 17:07:51;;;;;;;3.13;2.10;;;;;;;;;;4926853;29;20428;-92
2023/05/15 17:10:17;;;;;;;2.83;2.10;;;;;;;;;;4946191;28;21198;-95
2023/05/15 17:12:43;;;;;;;3.30;2.17;;;;;;;;;;4925071;29;20487;-90
2023/05/15 17:15:10;;;;;;;3.00;2.47;;;;;;;;;;4941499;29;20463;-90
2023/05/15 17:17:36;;;;;;;2.30;1.90;;;;;;;;;;4923276;29;20589;-90
2023/05/15 17:20:02;;;;;;;2.50;1.90;;;;;;;;;;4944191;29;20451;-91
2023/05/15 17:22:28;;;;;;;3.30;2.30;;;;;;;;;;4922981;29;20439;-90
2023/05/15 17:24:55;;;;;;;3.17;2.07;;;;;;;;;;4969755;28;20440;-91
2023/05/15 17:27:21;;;;;;;2.83;2.43;;;;;;;;;;4953588;28;20439;-91
2023/05/15 17:29:47;;;;;;;3.20;2.40;;;;;;;;;;4941439;29;20432;-90
2023/05/15 17:32:13;;;;;;;2.37;2.17;;;;;;;;;;4924127;29;20578;-90
2023/05/15 17:34:39;;;;;;;3.13;2.77;;;;;;;;;;4941272;29;20447;-91
2023/05/15 17:37:05;;;;;;;2.90;2.60;;;;;;;;;;4929463;29;20511;-95
2023/05/15 21:30:37;;;;;;;7.57;5.50;;;;;;;;;;4930174;29;20487;-87
2023/05/15 21:33:08;;;;;;;7.07;5.87;;;;;;;;;;4928532;29;21218;-87
2023/05/15 21:35:34;;;;;;;6.33;5.67;;;;;;;;;;4933315;29;20439;-88
2023/05/15 21:38:03;;;;;;;6.30;5.00;;;;;;;;;;4927596;29;20438;-87
2023/05/15 21:40:30;;;;;;;6.00;5.20;;;;;;;;;;4908948;29;20883;-87
2023/05/15 21:42:56;;;;;;;8.40;5.07;;;;;;;;;;4931795;29;20826;-89
2023/05/15 21:45:22;;;;;;;6.27;5.67;;;;;;;;;;4932618;28;20446;-92
2023/05/15 21:47:51;;;;;;;6.67;5.80;;;;;;;;;;4931747;29;21268;-94
2023/05/15 21:50:18;;;;;;;5.83;5.20;;;;;;;;;;4935659;28;20451;-93
2023/05/15 21:52:44;;;;;;;6.93;5.83;;;;;;;;;;4940666;29;20487;-94
2023/05/15 21:55:15;;;;;;;6.83;6.13;;;;;;;;;;4938780;29;20431;-95
2023/05/15 21:57:41;;;;;;;6.27;5.47;;;;;;;;;;4937119;28;20420;-95
2023/05/15 22:00:08;;;;;;;9.07;5.67;;;;;;;;;;4935018;29;20501;-94
2023/05/15 22:02:34;;;;;;;7.03;5.37;;;;;;;;;;4936787;29;20868;-94
2023/05/15 22:05:00;;;;;;;6.37;5.80;;;;;;;;;;4937778;29;20499;-95
2023/05/15 22:07:26;;;;;;;8.50;5.37;;;;;;;;;;4909872;29;20459;-93
2023/05/15 22:09:52;;;;;;;5.87;4.70;;;;;;;;;;4939532;29;20520;-94
2023/05/15 22:12:18;;;;;;;6.43;4.63;;;;;;;;;;4941189;29;20441;-96
2023/05/15 22:14:44;;;;;;;8.20;4.93;;;;;;;;;;4936693;28;20479;-94
2023/05/15 22:17:11;;;;;;;7.40;6.30;;;;;;;;;;4936983;29;20420;-95
2023/05/15 22:19:40;;;;;;;7.27;5.17;;;;;;;;;;4939783;29;20448;-94
2023/05/15 22:22:06;;;;;;;6.77;5.60;;;;;;;;;;4947791;29;20468;-94
2023/05/15 22:24:32;;;;;;;7.20;5.80;;;;;;;;;;4937237;29;20436;-95
2023/05/15 22:26:58;;;;;;;6.50;5.90;;;;;;;;;;4943316;29;20432;-94
2023/05/15 22:29:25;;;;;;;6.00;5.40;;;;;;;;;;4935713;29;20448;-95
2023/05/15 22:31:51;;;;;;;6.70;6.03;;;;;;;;;;4943437;29;20436;-95
2023/05/15 22:34:17;;;;;;;6.03;5.43;;;;;;;;;;4940985;29;20492;-94
2023/05/15 22:36:43;;;;;;;7.00;6.23;;;;;;;;;;4940193;29;20437;-95
2023/05/15 22:39:09;;;;;;;6.60;5.53;;;;;;;;;;4937322;28;20516;-95
2023/05/15 22:41:36;;;;;;;7.27;5.27;;;;;;;;;;4939193;29;20464;-95
2023/05/15 22:44:02;;;;;;;7.60;5.70;;;;;;;;;;4938304;29;20432;-95